Time;durP1;ratioP1;P1;durP2;ratioP2;P2;SDS_P1;SDS_P2;PMS_P1;PMS_P2;Temp;Humidity;BMP_temperature;BMP_pressure;BME280_temperature;BME280_humidity;BME280_pressure;Samples;Min_cycle;Max_cycle;Signal;HPM_P1;HPM_P2
2022/10/09 00:02:31;;;;;;;0.73;0.73;;;9.90;99.90;;;;;;6047387;29;20297;-66
2022/10/09 00:05:36;;;;;;;3.05;1.02;;;9.90;99.90;;;;;;6047380;29;20302;-66
2022/10/09 00:08:42;;;;;;;5.00;1.27;;;9.90;99.90;;;;;;6047110;29;20306;-66
2022/10/09 00:11:49;;;;;;;1.10;1.00;;;9.90;99.90;;;;;;6029916;29;20270;-66
2022/10/09 00:15:12;;;;;;;3.95;1.10;;;9.90;99.90;;;;;;6023935;29;20575;-67
2022/10/09 00:18:18;;;;;;;3.05;1.00;;;9.90;99.90;;;;;;6024369;29;20302;-67
2022/10/09 00:21:25;;;;;;;2.65;1.40;;;9.90;99.90;;;;;;6024293;29;20283;-67
2022/10/09 00:24:30;;;;;;;1.30;1.10;;;9.90;99.90;;;;;;6024043;29;20322;-67
2022/10/09 00:27:36;;;;;;;1.83;1.08;;;9.80;99.90;;;;;;6024235;29;20294;-66
2022/10/09 00:30:41;;;;;;;1.45;1.20;;;9.80;99.90;;;;;;6024635;29;20275;-67
2022/10/09 00:33:47;;;;;;;1.30;1.20;;;9.80;99.90;;;;;;6024186;29;20647;-67
2022/10/09 00:36:51;;;;;;;3.28;0.98;;;9.90;99.90;;;;;;6024330;29;20279;-67
2022/10/09 00:39:56;;;;;;;1.52;1.08;;;9.90;99.90;;;;;;6024091;29;20302;-66
2022/10/09 00:43:04;;;;;;;1.35;1.23;;;9.80;99.90;;;;;;6023881;29;20294;-66
2022/10/09 00:46:28;;;;;;;2.95;1.00;;;9.70;99.90;;;;;;6038221;29;20295;-67
2022/10/09 00:49:34;;;;;;;1.63;1.05;;;9.70;99.90;;;;;;6023622;29;20298;-66
2022/10/09 00:52:40;;;;;;;1.75;1.05;;;9.70;99.90;;;;;;6023490;29;20294;-67
2022/10/09 00:55:44;;;;;;;1.40;0.98;;;9.70;99.90;;;;;;6024501;29;20282;-66
2022/10/09 00:58:54;;;;;;;1.88;0.90;;;9.70;99.90;;;;;;6026504;29;20587;-67
2022/10/09 01:01:59;;;;;;;0.95;0.95;;;9.70;99.90;;;;;;6028644;29;20270;-65
2022/10/09 01:05:06;;;;;;;1.67;0.93;;;9.70;99.90;;;;;;6027593;29;20302;-66
2022/10/09 01:08:23;;;;;;;0.93;0.93;;;9.70;99.90;;;;;;6027699;29;20484;-66
2022/10/09 01:11:38;;;;;;;0.93;0.90;;;9.50;99.90;;;;;;6043247;29;20558;-66
2022/10/09 01:14:56;;;;;;;3.10;1.02;;;9.50;99.90;;;;;;6050902;29;20298;-66
2022/10/09 01:18:07;;;;;;;1.27;0.90;;;9.60;99.90;;;;;;6050835;29;20301;-65
2022/10/09 01:21:17;;;;;;;1.13;0.80;;;9.60;99.90;;;;;;6051223;29;20291;-66
2022/10/09 01:24:27;;;;;;;0.80;0.80;;;9.60;99.90;;;;;;6050712;29;20332;-66
2022/10/09 01:27:35;;;;;;;2.30;0.90;;;9.50;99.90;;;;;;6050477;29;20310;-66
2022/10/09 01:30:40;;;;;;;0.80;0.70;;;9.50;99.90;;;;;;6051108;29;20310;-66
2022/10/09 01:33:46;;;;;;;3.35;1.00;;;9.60;99.90;;;;;;6050429;29;20306;-66
2022/10/09 01:36:52;;;;;;;0.98;0.98;;;9.60;99.90;;;;;;6050542;29;20469;-66
2022/10/09 01:39:57;;;;;;;0.70;0.70;;;9.50;99.90;;;;;;6050050;29;20294;-66
2022/10/09 01:43:04;;;;;;;0.80;0.80;;;9.40;99.90;;;;;;6050001;29;20369;-66
2022/10/09 01:46:20;;;;;;;1.00;1.00;;;9.40;99.90;;;;;;6050149;29;20294;-67
2022/10/09 01:49:43;;;;;;;0.90;0.90;;;9.50;99.90;;;;;;6050180;29;20311;-66
2022/10/09 01:52:51;;;;;;;1.50;0.85;;;9.50;99.90;;;;;;6049975;29;20309;-67
2022/10/09 01:56:03;;;;;;;0.90;0.90;;;9.50;99.90;;;;;;6050673;29;20281;-67
2022/10/09 01:59:12;;;;;;;0.90;0.90;;;9.50;99.90;;;;;;6050022;29;20311;-66
2022/10/09 02:02:20;;;;;;;3.75;1.00;;;9.60;99.90;;;;;;6049920;29;20285;-66
2022/10/09 02:05:28;;;;;;;1.08;1.00;;;9.50;99.90;;;;;;6050176;29;20282;-66
2022/10/09 02:08:34;;;;;;;1.92;0.88;;;9.60;99.90;;;;;;6049030;29;20305;-66
2022/10/09 02:11:40;;;;;;;1.00;1.00;;;9.50;99.90;;;;;;6033498;29;20266;-66
2022/10/09 02:14:46;;;;;;;0.80;0.80;;;9.50;99.90;;;;;;6026627;29;20441;-67
2022/10/09 02:17:53;;;;;;;2.75;1.00;;;9.50;99.90;;;;;;6026564;29;20484;-66
2022/10/09 02:21:01;;;;;;;0.70;0.70;;;9.50;99.90;;;;;;6027048;29;20295;-66
2022/10/09 02:24:08;;;;;;;0.77;0.77;;;9.50;99.90;;;;;;6026342;29;20298;-66
2022/10/09 02:27:14;;;;;;;1.77;0.70;;;9.50;99.90;;;;;;6026256;29;20298;-67
2022/10/09 02:30:22;;;;;;;2.15;1.20;;;9.50;99.90;;;;;;6026765;29;20270;-66
2022/10/09 02:33:31;;;;;;;1.38;1.00;;;9.40;99.90;;;;;;6026161;29;20610;-66
2022/10/09 02:36:37;;;;;;;3.13;0.98;;;9.50;99.90;;;;;;6026359;29;20278;-66
2022/10/09 02:39:42;;;;;;;1.10;1.10;;;9.40;99.90;;;;;;6026118;29;20598;-66
2022/10/09 02:42:48;;;;;;;1.73;0.95;;;9.30;99.90;;;;;;6025829;29;20586;-65
2022/10/09 02:45:55;;;;;;;1.00;1.00;;;9.20;99.90;;;;;;6026371;29;20279;-65
2022/10/09 02:48:59;;;;;;;0.82;0.82;;;9.10;99.90;;;;;;6025915;29;20298;-66
2022/10/09 02:52:04;;;;;;;2.85;0.85;;;9.20;99.90;;;;;;6025717;29;20274;-66
2022/10/09 02:55:10;;;;;;;1.30;0.70;;;9.20;99.90;;;;;;6026242;29;20275;-66
2022/10/09 02:58:15;;;;;;;0.85;0.85;;;9.10;99.90;;;;;;6025504;29;20297;-67
2022/10/09 03:01:22;;;;;;;2.97;1.00;;;9.20;99.90;;;;;;6025753;29;20278;-66
2022/10/09 03:04:27;;;;;;;1.85;0.90;;;9.20;99.90;;;;;;6029847;29;20606;-66
2022/10/09 03:07:32;;;;;;;2.40;0.90;;;9.10;99.90;;;;;;6039677;29;20322;-66
2022/10/09 03:10:37;;;;;;;1.13;1.00;;;9.10;99.90;;;;;;6025515;29;20302;-67
2022/10/09 03:13:43;;;;;;;0.90;0.88;;;9.20;99.90;;;;;;6048431;29;20297;-66
2022/10/09 03:16:49;;;;;;;1.00;1.00;;;9.20;99.90;;;;;;6048373;29;20278;-66
2022/10/09 03:19:54;;;;;;;1.05;1.00;;;9.20;99.90;;;;;;6041852;29;20294;-66
2022/10/09 03:22:59;;;;;;;0.80;0.80;;;9.20;99.90;;;;;;6025099;29;20274;-67
2022/10/09 03:26:06;;;;;;;3.78;0.93;;;9.20;99.90;;;;;;6025476;29;20278;-66
2022/10/09 03:29:13;;;;;;;0.90;0.90;;;9.10;99.90;;;;;;6025116;29;20302;-66
2022/10/09 03:32:20;;;;;;;3.30;1.10;;;9.10;99.90;;;;;;6025595;29;20275;-66
2022/10/09 03:35:25;;;;;;;0.88;0.88;;;9.20;99.90;;;;;;6025153;29;20302;-67
2022/10/09 03:38:30;;;;;;;1.27;1.17;;;9.10;99.90;;;;;;6042092;29;20301;-66
2022/10/09 03:41:34;;;;;;;1.02;1.02;;;9.10;99.90;;;;;;6048333;29;20278;-66
2022/10/09 03:44:40;;;;;;;2.00;0.90;;;9.20;99.90;;;;;;6047707;29;20313;-67
2022/10/09 03:47:46;;;;;;;1.65;0.90;;;9.10;99.90;;;;;;6048053;29;20478;-66
2022/10/09 03:50:51;;;;;;;1.10;1.10;;;9.10;99.90;;;;;;6047090;29;20317;-66
2022/10/09 03:53:56;;;;;;;1.27;1.00;;;9.00;99.90;;;;;;6047473;29;20306;-66
2022/10/09 03:57:01;;;;;;;1.33;1.02;;;9.10;99.90;;;;;;6047556;29;20274;-66
2022/10/09 04:00:07;;;;;;;1.27;1.17;;;9.10;99.90;;;;;;6047305;29;20389;-67
2022/10/09 04:03:18;;;;;;;1.17;1.17;;;9.10;99.90;;;;;;6047280;29;20297;-66
2022/10/09 04:06:22;;;;;;;1.35;1.25;;;9.00;99.90;;;;;;6047668;29;20277;-66
2022/10/09 04:09:28;;;;;;;1.50;1.40;;;9.00;99.90;;;;;;6047262;29;20302;-66
2022/10/09 04:12:32;;;;;;;1.30;1.05;;;9.00;99.90;;;;;;6044527;29;20559;-66
2022/10/09 04:15:37;;;;;;;1.10;1.10;;;8.90;99.90;;;;;;6024224;29;20318;-66
2022/10/09 04:18:46;;;;;;;1.55;1.20;;;8.90;99.90;;;;;;6024269;29;20491;-65
2022/10/09 04:21:51;;;;;;;1.27;1.20;;;8.90;99.90;;;;;;6024229;29;20271;-66
2022/10/09 04:24:56;;;;;;;1.77;1.20;;;9.00;99.90;;;;;;6024306;29;20307;-66
2022/10/09 04:28:01;;;;;;;1.38;1.27;;;9.00;99.90;;;;;;6024182;29;20298;-67
2022/10/09 04:31:06;;;;;;;1.50;1.40;;;9.00;99.90;;;;;;6024861;29;20369;-66
2022/10/09 04:34:14;;;;;;;1.45;1.45;;;8.90;99.90;;;;;;6028778;29;20298;-66
2022/10/09 04:37:19;;;;;;;1.38;1.38;;;8.90;99.90;;;;;;6029168;29;20274;-66
2022/10/09 04:40:23;;;;;;;1.27;1.25;;;9.00;99.90;;;;;;6028767;29;20298;-66
2022/10/09 04:43:29;;;;;;;1.40;1.30;;;8.90;99.90;;;;;;6028818;29;20586;-66
2022/10/09 04:46:34;;;;;;;1.52;1.52;;;8.80;99.90;;;;;;6028786;29;20278;-66
2022/10/09 04:49:40;;;;;;;1.50;1.38;;;8.70;99.90;;;;;;6028337;29;20306;-66
2022/10/09 04:52:45;;;;;;;2.65;1.02;;;8.80;99.90;;;;;;6028882;29;20490;-67
2022/10/09 04:55:51;;;;;;;1.83;1.83;;;8.70;99.90;;;;;;6028346;29;20318;-65
2022/10/09 04:58:56;;;;;;;1.08;1.08;;;8.70;99.90;;;;;;6028150;29;20302;-66
2022/10/09 05:02:00;;;;;;;1.10;1.10;;;8.70;99.90;;;;;;6028462;29;20278;-66
2022/10/09 05:05:08;;;;;;;1.00;1.00;;;8.70;99.90;;;;;;6042165;29;20294;-66
2022/10/09 05:08:13;;;;;;;1.20;1.20;;;8.70;99.90;;;;;;6027605;29;20463;-67
2022/10/09 05:11:21;;;;;;;1.10;1.10;;;8.70;99.90;;;;;;6035775;29;20266;-66
2022/10/09 05:14:26;;;;;;;1.65;1.27;;;8.60;99.90;;;;;;6050779;29;20299;-66
2022/10/09 05:17:31;;;;;;;1.10;1.10;;;8.60;99.90;;;;;;6050882;29;20270;-66
2022/10/09 05:20:42;;;;;;;3.15;1.00;;;8.60;99.90;;;;;;6050829;29;20615;-66
2022/10/09 05:23:47;;;;;;;0.98;0.98;;;8.50;99.90;;;;;;6050365;29;20311;-67
2022/10/09 05:26:52;;;;;;;2.65;1.00;;;8.50;99.90;;;;;;6050805;29;20329;-66
2022/10/09 05:29:56;;;;;;;1.17;1.17;;;8.40;99.90;;;;;;6050555;29;20301;-67
2022/10/09 05:33:01;;;;;;;1.20;0.98;;;8.40;99.90;;;;;;6050552;29;20286;-66
2022/10/09 05:36:08;;;;;;;1.23;1.05;;;8.30;99.90;;;;;;6050980;29;20274;-66
2022/10/09 05:39:13;;;;;;;1.08;1.08;;;8.40;99.90;;;;;;6050319;29;20310;-66
2022/10/09 05:42:18;;;;;;;1.88;1.20;;;8.40;99.90;;;;;;6050938;29;20278;-66
2022/10/09 05:45:23;;;;;;;1.25;1.25;;;8.30;99.90;;;;;;6049663;29;20314;-66
2022/10/09 05:48:28;;;;;;;1.00;0.93;;;8.30;99.90;;;;;;6050121;29;20589;-66
2022/10/09 05:51:38;;;;;;;1.35;1.10;;;8.40;99.90;;;;;;6050240;29;20277;-66
2022/10/09 05:54:43;;;;;;;1.10;0.95;;;8.40;99.90;;;;;;6050056;29;20297;-66
2022/10/09 05:57:49;;;;;;;0.93;0.90;;;8.40;99.90;;;;;;6050554;29;20278;-67
2022/10/09 06:00:59;;;;;;;0.90;0.90;;;8.40;99.90;;;;;;6049276;29;20483;-67
2022/10/09 06:04:08;;;;;;;1.27;0.98;;;8.40;99.90;;;;;;6049607;29;20471;-66
2022/10/09 06:07:14;;;;;;;0.95;0.95;;;8.40;99.90;;;;;;6050235;29;20610;-66
2022/10/09 06:10:19;;;;;;;2.40;1.00;;;8.40;99.90;;;;;;6049425;29;20302;-66
2022/10/09 06:13:24;;;;;;;1.48;0.90;;;8.40;99.90;;;;;;6049774;29;20302;-66
2022/10/09 06:16:30;;;;;;;0.93;0.93;;;8.40;99.90;;;;;;6049772;29;20310;-66
2022/10/09 06:19:36;;;;;;;3.10;0.95;;;8.30;99.90;;;;;;6049057;29;20297;-66
2022/10/09 06:22:42;;;;;;;1.30;1.30;;;8.40;99.90;;;;;;6049605;29;20277;-66
2022/10/09 06:25:52;;;;;;;1.10;1.10;;;8.40;99.90;;;;;;6049375;29;20293;-67
2022/10/09 06:29:00;;;;;;;4.72;1.30;;;8.40;99.90;;;;;;6049448;29;20329;-67
2022/10/09 06:32:05;;;;;;;1.30;1.17;;;8.40;99.90;;;;;;6049285;29;20274;-65
2022/10/09 06:35:11;;;;;;;1.33;1.33;;;8.40;99.90;;;;;;6048848;29;20315;-66
2022/10/09 06:38:18;;;;;;;3.50;1.10;;;8.40;99.90;;;;;;6049194;29;20306;-66
2022/10/09 06:41:25;;;;;;;1.30;1.30;;;8.40;99.90;;;;;;6049459;29;20277;-67
2022/10/09 06:44:31;;;;;;;1.40;1.30;;;8.40;99.90;;;;;;6048944;29;20302;-67
2022/10/09 06:47:35;;;;;;;1.27;0.90;;;8.40;99.90;;;;;;6048900;29;20282;-66
2022/10/09 06:50:40;;;;;;;1.23;1.23;;;8.50;99.90;;;;;;6048855;29;20301;-66
2022/10/09 06:53:48;;;;;;;1.13;1.10;;;8.50;99.90;;;;;;6048832;29;20310;-66
2022/10/09 06:56:54;;;;;;;5.32;1.40;;;8.50;99.90;;;;;;6047704;29;20279;-66
2022/10/09 06:59:59;;;;;;;1.23;1.20;;;8.50;99.90;;;;;;6048571;29;20307;-66
2022/10/09 07:03:04;;;;;;;1.38;1.38;;;8.60;99.90;;;;;;6048040;29;20278;-66
2022/10/09 07:06:11;;;;;;;1.75;1.13;;;8.60;99.90;;;;;;6062589;29;20468;-66
2022/10/09 07:09:17;;;;;;;1.20;1.20;;;8.60;99.90;;;;;;6048495;29;20322;-66
2022/10/09 07:12:23;;;;;;;1.80;1.52;;;8.60;99.90;;;;;;6033294;29;20275;-67
2022/10/09 07:15:27;;;;;;;1.85;1.20;;;8.70;99.90;;;;;;6025289;29;20303;-66
2022/10/09 07:18:33;;;;;;;1.20;1.20;;;8.70;99.90;;;;;;6025285;29;20606;-66
2022/10/09 07:21:40;;;;;;;1.58;1.45;;;8.70;99.90;;;;;;6025816;29;20271;-66
2022/10/09 07:24:46;;;;;;;1.27;1.27;;;8.70;99.90;;;;;;6025203;29;20306;-66
2022/10/09 07:27:51;;;;;;;1.50;1.42;;;8.70;99.90;;;;;;6025551;29;20465;-67
2022/10/09 07:30:56;;;;;;;2.00;1.40;;;8.70;99.90;;;;;;6023965;29;20302;-67
2022/10/09 07:34:01;;;;;;;11.40;6.85;;;8.80;99.90;;;;;;6024897;29;20299;-67
2022/10/09 07:37:06;;;;;;;32.45;15.63;;;8.80;99.90;;;;;;6024971;29;20274;-66
2022/10/09 07:40:13;;;;;;;8.90;7.22;;;8.80;99.90;;;;;;6024287;29;20302;-65
2022/10/09 07:43:19;;;;;;;11.82;6.95;;;8.80;99.90;;;;;;6024877;29;20298;-67
2022/10/09 07:46:25;;;;;;;6.72;5.95;;;8.80;99.90;;;;;;6024801;29;20274;-67
2022/10/09 07:49:37;;;;;;;7.00;6.30;;;8.80;99.90;;;;;;6024582;29;20454;-67
2022/10/09 07:52:41;;;;;;;24.73;16.27;;;8.90;99.90;;;;;;6024664;29;20471;-66
2022/10/09 07:55:48;;;;;;;36.55;20.23;;;8.80;99.90;;;;;;6024588;29;20303;-67
2022/10/09 07:58:55;;;;;;;34.50;17.33;;;8.90;99.90;;;;;;6024604;29;20302;-67
2022/10/09 08:01:59;;;;;;;24.83;11.20;;;8.90;99.90;;;;;;6024583;29;20270;-66
2022/10/09 08:05:05;;;;;;;17.00;10.63;;;8.90;99.90;;;;;;6024212;29;20306;-66
2022/10/09 08:08:11;;;;;;;5.90;3.10;;;9.10;99.90;;;;;;6023700;29;20609;-66
2022/10/09 08:11:19;;;;;;;3.50;2.03;;;9.00;99.90;;;;;;6031307;29;20281;-66
2022/10/09 08:14:24;;;;;;;2.15;1.70;;;9.10;99.90;;;;;;6046766;29;20302;-67
2022/10/09 08:17:29;;;;;;;7.57;2.28;;;9.10;99.90;;;;;;6047594;29;20557;-67
2022/10/09 08:20:34;;;;;;;1.65;1.00;;;9.20;99.90;;;;;;6047256;29;20298;-66
2022/10/09 08:23:39;;;;;;;2.78;0.90;;;9.20;99.90;;;;;;6046691;29;20461;-66
2022/10/09 08:26:45;;;;;;;1.25;1.00;;;9.20;99.90;;;;;;6047494;29;20278;-66
2022/10/09 08:29:51;;;;;;;0.75;0.75;;;9.30;99.90;;;;;;6047033;29;20302;-67
2022/10/09 08:32:56;;;;;;;1.15;1.15;;;9.20;99.90;;;;;;6046816;29;20282;-68
2022/10/09 08:36:06;;;;;;;3.63;0.90;;;9.20;99.90;;;;;;6047358;29;20495;-65
2022/10/09 08:39:12;;;;;;;4.13;0.88;;;9.30;99.90;;;;;;6046574;29;20298;-66
2022/10/09 08:42:31;;;;;;;1.88;1.88;;;9.30;99.90;;;;;;6047278;29;20554;-66
2022/10/09 08:45:35;;;;;;;1.85;1.85;;;9.40;99.90;;;;;;6046773;29;20297;-66
2022/10/09 08:48:43;;;;;;;1.98;1.92;;;9.40;99.90;;;;;;6046645;29;20303;-66
2022/10/09 08:51:48;;;;;;;2.30;2.30;;;9.30;99.90;;;;;;6047143;29;20294;-66
2022/10/09 08:54:56;;;;;;;1.70;1.70;;;9.40;99.90;;;;;;6046525;29;20307;-66
2022/10/09 08:58:05;;;;;;;3.42;2.22;;;9.50;99.90;;;;;;6046776;29;20429;-67
2022/10/09 09:01:19;;;;;;;13.93;8.57;;;9.50;99.90;;;;;;6047108;29;20283;-66
2022/10/09 09:04:35;;;;;;;11.05;6.82;;;9.50;99.90;;;;;;6046858;29;20297;-66
2022/10/09 09:07:49;;;;;;;7.63;5.32;;;9.50;99.90;;;;;;6046816;29;20306;-66
2022/10/09 09:11:07;;;;;;;8.23;5.25;;;9.60;99.90;;;;;;6041333;29;20306;-66
2022/10/09 09:14:29;;;;;;;6.70;5.30;;;9.60;99.90;;;;;;6023865;29;20299;-66
2022/10/09 09:17:42;;;;;;;6.47;5.75;;;9.60;99.90;;;;;;6024103;29;20279;-66
2022/10/09 09:20:52;;;;;;;6.28;5.55;;;9.60;99.90;;;;;;6027167;29;20310;-67
2022/10/09 09:23:59;;;;;;;14.80;8.88;;;9.60;99.90;;;;;;6027437;29;20326;-67
2022/10/09 09:27:13;;;;;;;14.52;9.10;;;9.70;99.90;;;;;;6028093;29;20430;-67
2022/10/09 09:30:23;;;;;;;16.33;10.68;;;9.70;99.90;;;;;;6027588;29;20311;-67
2022/10/09 09:33:38;;;;;;;14.65;8.70;;;9.80;99.90;;;;;;6027428;29;20327;-67
2022/10/09 09:36:52;;;;;;;7.55;6.53;;;9.80;99.90;;;;;;6028225;29;20274;-67
2022/10/09 09:39:57;;;;;;;7.68;6.10;;;9.80;99.90;;;;;;6027367;29;20298;-66
2022/10/09 09:43:25;;;;;;;9.50;5.82;;;9.90;99.90;;;;;;6026784;29;20302;-67
2022/10/09 09:46:32;;;;;;;6.28;5.07;;;10.00;99.90;;;;;;6027857;29;20275;-67
2022/10/09 09:49:37;;;;;;;5.47;5.00;;;10.00;99.90;;;;;;6027318;29;20307;-67
2022/10/09 09:52:44;;;;;;;9.73;5.95;;;10.00;99.90;;;;;;6027506;29;20290;-67
2022/10/09 09:55:52;;;;;;;5.65;4.90;;;10.20;99.90;;;;;;6026536;29;20318;-67
2022/10/09 09:58:57;;;;;;;2.83;2.72;;;10.20;99.90;;;;;;6027065;29;20294;-67
2022/10/09 10:02:13;;;;;;;5.00;4.60;;;10.20;99.90;;;;;;6027020;29;20286;-66
2022/10/09 10:05:24;;;;;;;3.28;3.08;;;10.30;99.90;;;;;;6026721;29;20310;-66
2022/10/09 10:08:31;;;;;;;1.40;1.40;;;10.50;99.90;;;;;;6026725;29;20302;-66
2022/10/09 10:11:36;;;;;;;1.88;1.77;;;10.60;99.80;;;;;;6036193;29;20290;-67
2022/10/09 10:14:50;;;;;;;0.90;0.90;;;10.60;99.90;;;;;;6049227;29;20318;-66
2022/10/09 10:18:00;;;;;;;1.45;1.45;;;10.60;99.60;;;;;;6049047;29;20569;-66
2022/10/09 10:21:10;;;;;;;1.80;1.80;;;10.70;99.90;;;;;;6049889;29;20278;-67
2022/10/09 10:24:21;;;;;;;2.85;2.00;;;10.70;99.90;;;;;;6048984;29;20302;-66
2022/10/09 10:27:32;;;;;;;2.70;2.60;;;10.70;99.90;;;;;;6049750;29;20279;-67
2022/10/09 10:30:38;;;;;;;1.55;1.55;;;10.90;99.10;;;;;;6048612;29;20309;-66
2022/10/09 10:33:45;;;;;;;1.27;1.27;;;11.00;99.10;;;;;;6049047;29;20301;-66
2022/10/09 10:36:57;;;;;;;1.00;1.00;;;11.00;99.20;;;;;;6049085;29;20274;-67
2022/10/09 10:40:15;;;;;;;0.73;0.73;;;11.00;99.60;;;;;;6048633;29;20302;-67
2022/10/09 10:43:31;;;;;;;0.68;0.68;;;11.00;99.70;;;;;;6048585;29;20302;-66
2022/10/09 10:46:47;;;;;;;1.00;0.90;;;11.10;99.70;;;;;;6049171;29;20274;-67
2022/10/09 10:49:54;;;;;;;0.82;0.82;;;11.20;99.60;;;;;;6048769;29;20323;-68
2022/10/09 10:53:10;;;;;;;2.33;1.00;;;11.20;99.40;;;;;;6048133;29;20301;-66
2022/10/09 10:56:26;;;;;;;0.90;0.90;;;11.30;99.50;;;;;;6048577;29;20278;-66
2022/10/09 10:59:41;;;;;;;0.82;0.82;;;11.40;98.50;;;;;;6048065;29;20309;-66
2022/10/09 11:03:06;;;;;;;0.80;0.80;;;11.40;98.60;;;;;;6048354;29;20274;-66
2022/10/09 11:06:20;;;;;;;3.75;0.82;;;11.50;98.80;;;;;;6047485;29;20516;-66
2022/10/09 11:09:31;;;;;;;0.88;0.88;;;11.60;99.10;;;;;;6048041;29;20313;-66
2022/10/09 11:12:42;;;;;;;0.80;0.80;;;11.60;99.90;;;;;;6030768;29;20290;-66
2022/10/09 11:16:16;;;;;;;0.90;0.90;;;11.60;99.80;;;;;;6024722;29;20279;-66
2022/10/09 11:20:15;;;;;;;0.88;0.88;;;11.80;99.10;;;;;;6025130;29;20614;-66
2022/10/09 11:23:40;;;;;;;1.17;0.80;;;11.80;99.50;;;;;;5966675;29;20306;-67
2022/10/09 11:26:50;;;;;;;0.90;0.90;;;11.90;99.40;;;;;;6025259;29;20430;-66
2022/10/09 11:29:58;;;;;;;1.75;1.00;;;12.00;99.30;;;;;;6024852;29;20381;-67
2022/10/09 11:33:10;;;;;;;2.70;1.20;;;12.00;99.30;;;;;;6024742;29;20302;-67
2022/10/09 11:36:19;;;;;;;1.00;1.00;;;12.00;99.10;;;;;;6024849;29;20591;-66
2022/10/09 11:39:29;;;;;;;2.70;1.10;;;12.10;99.20;;;;;;6024782;29;20294;-66
2022/10/09 11:42:35;;;;;;;4.43;1.30;;;12.10;99.30;;;;;;6024166;29;20299;-66
2022/10/09 11:45:47;;;;;;;0.90;0.90;;;12.10;98.40;;;;;;6024247;29;20302;-66
2022/10/09 11:48:59;;;;;;;0.70;0.70;;;12.10;98.40;;;;;;6024375;29;20298;-66
2022/10/09 11:52:15;;;;;;;0.88;0.88;;;12.20;97.60;;;;;;6024697;29;20295;-67
2022/10/09 11:55:24;;;;;;;0.90;0.90;;;12.20;98.30;;;;;;6024456;29;20596;-68
2022/10/09 11:58:29;;;;;;;2.72;1.10;;;12.30;98.10;;;;;;6024158;29;20299;-67
2022/10/09 12:01:36;;;;;;;1.00;1.00;;;12.20;98.10;;;;;;6024383;29;20278;-66
2022/10/09 12:04:41;;;;;;;3.00;0.85;;;12.30;97.80;;;;;;6023840;29;20298;-66
2022/10/09 12:08:09;;;;;;;1.00;1.00;;;12.30;97.10;;;;;;6024301;29;20307;-66
2022/10/09 12:11:20;;;;;;;0.85;0.85;;;12.40;97.10;;;;;;6031622;29;20475;-66
2022/10/09 12:14:26;;;;;;;0.90;0.90;;;12.40;97.00;;;;;;6046629;29;20305;-67
2022/10/09 12:17:37;;;;;;;2.72;0.93;;;12.40;96.50;;;;;;6047097;29;20282;-66
2022/10/09 12:20:46;;;;;;;1.52;0.80;;;12.50;96.30;;;;;;6046930;29;20297;-67
2022/10/09 12:23:51;;;;;;;1.55;0.90;;;12.50;96.50;;;;;;6046411;29;20310;-67
2022/10/09 12:27:02;;;;;;;0.90;0.90;;;12.50;96.10;;;;;;6047008;29;20586;-67
2022/10/09 12:30:20;;;;;;;0.80;0.80;;;12.60;95.70;;;;;;6046315;29;20301;-66
2022/10/09 12:33:29;;;;;;;0.90;0.90;;;12.70;95.60;;;;;;6046698;29;20301;-66
2022/10/09 12:36:34;;;;;;;0.80;0.80;;;12.60;95.40;;;;;;6047013;29;20277;-65
2022/10/09 12:39:39;;;;;;;0.80;0.80;;;12.60;95.30;;;;;;6046516;29;20318;-66
2022/10/09 12:42:46;;;;;;;0.82;0.82;;;12.60;94.80;;;;;;6047301;29;20287;-66
2022/10/09 12:45:52;;;;;;;0.68;0.60;;;12.60;94.70;;;;;;6046778;29;20301;-66
2022/10/09 12:48:58;;;;;;;1.65;0.60;;;12.60;95.10;;;;;;6046713;29;20302;-66
2022/10/09 12:52:04;;;;;;;0.88;0.88;;;12.70;94.70;;;;;;6046714;29;20278;-67
2022/10/09 12:55:22;;;;;;;1.75;0.90;;;12.70;95.30;;;;;;6050957;29;20302;-66
2022/10/09 12:58:31;;;;;;;0.90;0.90;;;12.70;95.40;;;;;;6051120;29;20301;-67
2022/10/09 13:01:36;;;;;;;0.82;0.82;;;12.70;94.90;;;;;;6051489;29;20278;-67
2022/10/09 13:04:43;;;;;;;1.13;1.00;;;12.70;94.90;;;;;;6050906;29;20562;-66
2022/10/09 13:07:53;;;;;;;0.90;0.90;;;12.70;93.20;;;;;;6050823;29;20301;-65
2022/10/09 13:11:09;;;;;;;0.80;0.80;;;12.80;93.20;;;;;;6045321;29;20275;-67
2022/10/09 13:14:28;;;;;;;1.00;0.73;;;12.90;93.40;;;;;;6027396;29;20310;-66
2022/10/09 13:17:35;;;;;;;1.23;1.13;;;12.90;93.60;;;;;;6027809;29;20554;-67
2022/10/09 13:20:40;;;;;;;1.00;1.00;;;12.90;93.50;;;;;;6027413;29;20303;-67
2022/10/09 13:23:45;;;;;;;0.90;0.90;;;12.90;93.90;;;;;;6027342;29;20602;-66
2022/10/09 13:26:50;;;;;;;0.80;0.80;;;12.80;94.20;;;;;;6027975;29;20278;-66
2022/10/09 13:29:56;;;;;;;1.98;1.10;;;12.90;94.30;;;;;;6027322;29;20307;-65
2022/10/09 13:33:01;;;;;;;1.38;1.38;;;12.90;93.80;;;;;;6027480;29;20302;-66
2022/10/09 13:36:07;;;;;;;1.90;0.77;;;13.00;94.80;;;;;;6027720;29;20278;-66
2022/10/09 13:39:14;;;;;;;1.13;1.02;;;12.90;94.40;;;;;;6026973;29;20302;-67
2022/10/09 13:42:19;;;;;;;1.13;1.13;;;13.00;94.50;;;;;;6027213;29;20544;-66
2022/10/09 13:45:26;;;;;;;0.88;0.88;;;13.00;94.60;;;;;;6026784;29;20306;-66
2022/10/09 13:48:30;;;;;;;2.05;0.80;;;13.00;94.80;;;;;;6026665;29;20298;-66
2022/10/09 13:51:35;;;;;;;0.80;0.80;;;13.10;94.10;;;;;;6027338;29;20274;-66
2022/10/09 13:54:41;;;;;;;2.70;1.20;;;13.10;94.10;;;;;;6026753;29;20479;-66
2022/10/09 13:57:47;;;;;;;1.73;1.20;;;13.10;94.20;;;;;;6027484;29;20270;-66
2022/10/09 14:00:54;;;;;;;0.95;0.95;;;13.10;94.50;;;;;;6026690;29;20586;-66
2022/10/09 14:03:59;;;;;;;1.60;1.00;;;13.10;94.70;;;;;;6026212;29;20454;-66
2022/10/09 14:07:03;;;;;;;1.00;1.00;;;13.20;95.00;;;;;;6040803;29;20302;-65
2022/10/09 14:10:10;;;;;;;1.23;0.85;;;13.10;94.80;;;;;;6026444;29;20298;-66
2022/10/09 14:13:14;;;;;;;0.70;0.70;;;13.10;94.50;;;;;;6048623;29;20302;-66
2022/10/09 14:16:21;;;;;;;1.00;0.80;;;13.10;94.10;;;;;;6049559;29;20445;-66
2022/10/09 14:19:26;;;;;;;0.80;0.80;;;13.10;94.70;;;;;;6049277;29;20463;-66
2022/10/09 14:22:31;;;;;;;1.02;0.90;;;13.10;95.20;;;;;;6049853;29;20459;-66
2022/10/09 14:25:36;;;;;;;0.90;0.90;;;13.00;95.60;;;;;;6048947;29;20301;-66
2022/10/09 14:28:41;;;;;;;1.23;0.80;;;13.00;95.10;;;;;;6049157;29;20298;-66
2022/10/09 14:31:50;;;;;;;3.38;0.82;;;13.00;95.00;;;;;;6049681;29;20278;-67
2022/10/09 14:34:55;;;;;;;1.85;0.85;;;13.00;95.00;;;;;;6049156;29;20301;-67
2022/10/09 14:37:59;;;;;;;0.75;0.75;;;13.00;95.10;;;;;;6049084;29;20273;-66
2022/10/09 14:41:05;;;;;;;1.58;0.75;;;13.00;95.30;;;;;;6049149;29;20282;-67
2022/10/09 14:44:11;;;;;;;1.88;0.98;;;13.00;95.30;;;;;;6048581;29;20310;-67
2022/10/09 14:47:17;;;;;;;0.90;0.90;;;12.90;95.90;;;;;;6049210;29;20274;-67
2022/10/09 14:50:22;;;;;;;0.80;0.80;;;13.00;95.30;;;;;;6048838;29;20305;-67
2022/10/09 14:53:27;;;;;;;0.90;0.90;;;13.00;95.60;;;;;;6048657;29;20305;-66
2022/10/09 14:56:32;;;;;;;2.78;0.70;;;13.00;96.40;;;;;;6049292;29;20459;-66
2022/10/09 14:59:37;;;;;;;2.08;1.00;;;13.00;96.40;;;;;;6048323;29;20297;-67
2022/10/09 15:02:43;;;;;;;0.65;0.65;;;13.00;95.80;;;;;;6048529;29;20278;-67
2022/10/09 15:05:48;;;;;;;0.80;0.80;;;13.00;95.60;;;;;;6048514;29;20293;-67
2022/10/09 15:08:58;;;;;;;1.33;0.88;;;13.00;95.20;;;;;;6048283;29;20302;-67
2022/10/09 15:12:11;;;;;;;0.95;0.95;;;12.90;96.00;;;;;;6034773;29;20267;-67
2022/10/09 15:15:16;;;;;;;1.48;0.90;;;12.90;96.20;;;;;;6025227;29;20302;-67
2022/10/09 15:18:23;;;;;;;0.93;0.93;;;12.90;95.80;;;;;;6024502;29;20303;-67
2022/10/09 15:21:30;;;;;;;1.45;0.88;;;13.00;95.50;;;;;;6025528;29;20279;-67
2022/10/09 15:24:35;;;;;;;0.93;0.93;;;12.90;95.60;;;;;;6024929;29;20311;-66
2022/10/09 15:27:40;;;;;;;0.80;0.80;;;12.90;96.90;;;;;;6025621;29;20274;-66
2022/10/09 15:30:45;;;;;;;1.15;1.13;;;12.90;96.90;;;;;;6025019;29;20307;-66
2022/10/09 15:33:53;;;;;;;1.67;1.00;;;12.80;97.70;;;;;;6024746;29;20302;-66
2022/10/09 15:36:58;;;;;;;2.15;0.93;;;12.80;97.90;;;;;;6025470;29;20283;-67
2022/10/09 15:40:03;;;;;;;1.00;1.00;;;12.70;97.20;;;;;;6024756;29;20302;-68
2022/10/09 15:43:09;;;;;;;0.90;0.90;;;12.80;97.20;;;;;;6024825;29;20278;-68
2022/10/09 15:46:14;;;;;;;1.85;1.60;;;12.80;98.70;;;;;;6025344;29;20282;-68
2022/10/09 15:49:21;;;;;;;2.47;0.93;;;12.70;99.70;;;;;;6024794;29;20302;-67
2022/10/09 15:52:26;;;;;;;1.17;1.00;;;12.60;98.80;;;;;;6024644;29;20282;-68
2022/10/09 15:55:30;;;;;;;3.80;1.00;;;12.60;99.50;;;;;;6024559;29;20306;-68
2022/10/09 15:58:35;;;;;;;1.40;0.95;;;12.50;99.90;;;;;;6024755;29;20298;-67
2022/10/09 16:01:41;;;;;;;1.17;1.00;;;12.50;99.90;;;;;;6024632;29;20278;-67
2022/10/09 16:04:47;;;;;;;1.00;1.00;;;12.40;99.90;;;;;;6024303;29;20305;-67
2022/10/09 16:07:52;;;;;;;3.35;1.00;;;12.40;99.90;;;;;;6024687;29;20310;-67
2022/10/09 16:10:57;;;;;;;0.90;0.90;;;12.30;99.90;;;;;;6028090;29;20492;-67
2022/10/09 16:14:03;;;;;;;1.00;1.00;;;12.20;99.90;;;;;;6047422;29;20476;-67
2022/10/09 16:17:08;;;;;;;0.98;0.98;;;12.20;99.90;;;;;;6047526;29;20582;-67
2022/10/09 16:20:16;;;;;;;1.08;1.08;;;12.10;99.90;;;;;;6047141;29;20298;-67
2022/10/09 16:23:21;;;;;;;1.10;1.10;;;12.20;99.90;;;;;;6047155;29;20302;-67
2022/10/09 16:26:28;;;;;;;0.95;0.95;;;12.10;99.90;;;;;;6047495;29;20281;-67